createdAt,value
2022-08-17T00:00:43.993Z,99770.02
2022-08-17T00:01:22.519Z,99767.43
2022-08-17T00:02:21.245Z,99771.73
2022-08-17T00:03:21.069Z,99769.10
2022-08-17T00:04:11.763Z,99769.91
2022-08-17T00:05:11.065Z,99769.74
2022-08-17T00:06:22.066Z,99769.64
2022-08-17T00:07:11.063Z,99775.07
2022-08-17T00:08:11.074Z,99770.92
2022-08-17T00:09:11.071Z,99767.94
2022-08-17T00:10:13.076Z,99773.32
2022-08-17T00:12:51.162Z,99768.62
2022-08-17T00:12:57.217Z,99768.00
2022-08-17T00:13:14.079Z,99765.25
2022-08-17T00:14:15.073Z,99770.28
2022-08-17T00:15:11.067Z,99769.84
2022-08-17T00:16:13.061Z,99767.61
2022-08-17T00:17:11.070Z,99770.21
2022-08-17T00:19:00.898Z,99768.39
2022-08-17T00:19:14.076Z,99772.02
2022-08-17T00:20:11.066Z,99769.80
2022-08-17T00:21:11.060Z,99773.20
2022-08-17T00:22:34.131Z,99778.30
2022-08-17T00:23:16.056Z,99772.19
2022-08-17T00:24:11.061Z,99772.35
2022-08-17T00:25:15.060Z,99776.99
2022-08-17T00:26:11.059Z,99773.87
2022-08-17T00:27:11.058Z,99778.40
2022-08-17T00:28:11.061Z,99774.09
2022-08-17T00:29:11.060Z,99779.87
2022-08-17T00:30:14.148Z,99774.88
2022-08-17T00:31:11.062Z,99774.38
2022-08-17T00:33:12.354Z,99775.92
2022-08-17T00:33:17.190Z,99771.85
2022-08-17T00:34:11.079Z,99778.13
2022-08-17T00:35:11.064Z,99776.31
2022-08-17T00:36:11.059Z,99771.68
2022-08-17T00:37:11.070Z,99774.71
2022-08-17T00:38:13.059Z,99776.80
2022-08-17T00:39:11.059Z,99774.23
2022-08-17T00:40:11.175Z,99770.52
2022-08-17T00:41:15.063Z,99776.88
2022-08-17T00:42:15.063Z,99774.39
2022-08-17T00:43:16.063Z,99777.63
2022-08-17T00:44:11.077Z,99778.67
2022-08-17T00:45:11.060Z,99774.50
2022-08-17T00:46:12.061Z,99776.20
2022-08-17T00:47:11.065Z,99775.61
2022-08-17T00:48:23.769Z,99776.87
2022-08-17T00:49:13.083Z,99773.39
2022-08-17T00:50:15.069Z,99776.79
2022-08-17T00:51:19.064Z,99782.21
2022-08-17T00:52:15.062Z,99779.66
2022-08-17T00:53:11.065Z,99780.40
2022-08-17T00:54:19.071Z,99779.62
2022-08-17T00:55:11.071Z,99777.86
2022-08-17T00:56:14.060Z,99776.64
2022-08-17T00:57:19.070Z,99777.75
2022-08-17T00:58:11.072Z,99782.71
2022-08-17T00:59:11.063Z,99783.41
2022-08-17T01:00:18.066Z,99781.62
2022-08-17T01:01:11.118Z,99780.39
2022-08-17T01:02:12.063Z,99789.41
2022-08-17T01:03:17.065Z,99784.86
2022-08-17T01:04:11.064Z,99778.91
2022-08-17T01:05:12.064Z,99779.82
2022-08-17T01:06:11.065Z,99778.14
2022-08-17T01:07:11.064Z,99780.82
2022-08-17T01:08:12.066Z,99783.48
2022-08-17T01:09:11.065Z,99780.36
2022-08-17T01:10:57.578Z,99787.28
2022-08-17T01:11:13.088Z,99784.15
2022-08-17T01:12:11.066Z,99783.28
2022-08-17T01:13:11.067Z,99779.83
2022-08-17T01:14:11.074Z,99779.29
2022-08-17T01:15:11.065Z,99780.25
2022-08-17T01:16:19.070Z,99782.81
2022-08-17T01:17:11.075Z,99784.07
2022-08-17T01:18:11.071Z,99779.39
2022-08-17T01:19:18.070Z,99782.29
2022-08-17T01:20:11.065Z,99784.18
2022-08-17T01:21:19.058Z,99779.79
2022-08-17T01:22:20.056Z,99781.79
2022-08-17T01:23:11.055Z,99784.46
2022-08-17T01:24:13.069Z,99787.72
2022-08-17T01:25:11.060Z,99786.29
2022-08-17T01:26:11.055Z,99776.56
2022-08-17T01:27:11.065Z,99782.56
2022-08-17T01:28:11.060Z,99781.54
2022-08-17T01:29:13.060Z,99781.44
2022-08-17T01:30:58.970Z,99783.43
2022-08-17T01:31:13.068Z,99784.01
2022-08-17T01:32:11.059Z,99779.94
2022-08-17T01:33:11.059Z,99783.97
2022-08-17T01:34:12.058Z,99777.43
2022-08-17T01:35:11.061Z,99778.71
2022-08-17T01:36:11.059Z,99780.04
2022-08-17T01:37:11.059Z,99783.07
2022-08-17T01:38:11.061Z,99788.74
2022-08-17T01:39:17.062Z,99779.59
2022-08-17T01:40:21.060Z,99783.59
2022-08-17T01:41:13.068Z,99787.93
2022-08-17T01:42:18.059Z,99787.03
2022-08-17T01:43:17.057Z,99788.44
2022-08-17T01:44:11.064Z,99787.93
2022-08-17T01:45:16.061Z,99787.11
2022-08-17T01:46:14.062Z,99787.77
2022-08-17T01:47:11.063Z,99788.95
2022-08-17T01:48:11.069Z,99791.22
2022-08-17T01:49:12.062Z,99785.87
2022-08-17T01:50:14.059Z,99786.84
2022-08-17T01:51:11.061Z,99789.28
2022-08-17T01:52:11.061Z,99790.89
2022-08-17T01:53:18.064Z,99789.85
2022-08-17T01:54:14.082Z,99783.16
2022-08-17T01:55:11.069Z,99785.61
2022-08-17T01:56:14.068Z,99788.61
2022-08-17T01:57:11.058Z,99788.34
2022-08-17T01:58:13.067Z,99786.27
2022-08-17T01:59:11.064Z,99784.20
2022-08-17T02:00:11.066Z,99786.89
2022-08-17T02:01:11.110Z,99786.66
2022-08-17T02:02:11.065Z,99785.70
2022-08-17T02:03:13.133Z,99786.56
2022-08-17T02:04:11.068Z,99783.02
2022-08-17T02:05:11.071Z,99788.75
2022-08-17T02:06:11.994Z,99794.53
2022-08-17T02:07:13.067Z,99790.95
2022-08-17T02:08:19.724Z,99783.98
2022-08-17T02:09:16.830Z,99790.84
2022-08-17T02:10:18.941Z,99792.74
2022-08-17T02:11:16.067Z,99787.45
2022-08-17T02:12:38.790Z,99792.95
2022-08-17T02:13:13.344Z,99788.34
2022-08-17T02:14:11.064Z,99789.19
2022-08-17T02:15:11.065Z,99788.55
2022-08-17T02:16:11.072Z,99789.49
2022-08-17T02:17:11.063Z,99793.45
2022-08-17T02:18:11.070Z,99787.49
2022-08-17T02:19:13.077Z,99787.78
2022-08-17T02:20:11.074Z,99789.40
2022-08-17T02:21:11.061Z,99788.91
2022-08-17T02:22:11.063Z,99788.75
2022-08-17T02:23:11.057Z,99785.99
2022-08-17T02:24:12.062Z,99797.03
2022-08-17T02:25:11.067Z,99793.18
2022-08-17T02:26:11.058Z,99795.89
2022-08-17T02:27:13.090Z,99798.47
2022-08-17T02:28:11.059Z,99798.71
2022-08-17T02:29:11.060Z,99798.76
2022-08-17T02:30:50.198Z,99798.68
2022-08-17T02:31:14.067Z,99798.47
2022-08-17T02:32:27.531Z,99803.69
2022-08-17T02:33:13.071Z,99801.82
2022-08-17T02:34:11.056Z,99801.82
2022-08-17T02:35:11.068Z,99804.70
2022-08-17T02:36:11.062Z,99806.41
2022-08-17T02:37:11.062Z,99810.68
2022-08-17T02:38:11.066Z,99806.80
2022-08-17T02:39:11.062Z,99812.61
2022-08-17T02:40:11.154Z,99806.32
2022-08-17T02:41:11.071Z,99811.99
2022-08-17T02:42:11.058Z,99810.16
2022-08-17T02:43:11.061Z,99810.49
2022-08-17T02:44:11.069Z,99806.16
2022-08-17T02:45:15.063Z,99807.77
2022-08-17T02:46:11.062Z,99806.26
2022-08-17T02:47:11.062Z,99806.71
2022-08-17T02:48:11.062Z,99806.00
2022-08-17T02:49:11.058Z,99807.81
2022-08-17T02:50:11.061Z,99809.96
2022-08-17T02:51:11.063Z,99813.71
2022-08-17T02:52:11.060Z,99812.10
2022-08-17T02:53:11.062Z,99810.72
2022-08-17T02:54:41.491Z,99812.08
2022-08-17T02:55:18.367Z,99811.65
2022-08-17T02:56:11.068Z,99812.27
2022-08-17T02:57:11.070Z,99809.72
2022-08-17T02:58:11.059Z,99809.62
2022-08-17T02:59:11.064Z,99809.50
2022-08-17T03:00:12.071Z,99816.01
2022-08-17T03:01:11.126Z,99812.77
2022-08-17T03:02:11.066Z,99808.02
2022-08-17T03:03:11.065Z,99812.43
2022-08-17T03:04:11.065Z,99819.06
2022-08-17T03:05:11.065Z,99814.36
2022-08-17T03:06:11.070Z,99814.96
2022-08-17T03:07:11.064Z,99814.66
2022-08-17T03:08:12.975Z,99819.86
2022-08-17T03:09:11.072Z,99819.43
2022-08-17T03:10:11.065Z,99819.61
2022-08-17T03:11:11.065Z,99818.84
2022-08-17T03:12:11.074Z,99817.32
2022-08-17T03:13:11.065Z,99821.23
2022-08-17T03:14:11.062Z,99824.42
2022-08-17T03:15:14.071Z,99827.27
2022-08-17T03:16:11.066Z,99828.68
2022-08-17T03:17:11.075Z,99820.89
2022-08-17T03:18:19.392Z,99825.98
2022-08-17T03:19:13.081Z,99828.44
2022-08-17T03:20:11.063Z,99826.31
2022-08-17T03:21:12.057Z,99827.90
2022-08-17T03:22:35.572Z,99831.61
2022-08-17T03:23:13.057Z,99834.31
2022-08-17T03:24:11.057Z,99830.72
2022-08-17T03:25:11.058Z,99829.35
2022-08-17T03:26:12.271Z,99829.29
2022-08-17T03:27:11.056Z,99828.53
2022-08-17T03:28:11.059Z,99830.81
2022-08-17T03:29:11.059Z,99829.12
2022-08-17T03:30:11.057Z,99833.39
2022-08-17T03:31:11.059Z,99833.98
2022-08-17T03:32:15.067Z,99837.75
2022-08-17T03:33:11.060Z,99832.29
2022-08-17T03:34:11.056Z,99840.24
2022-08-17T03:35:11.063Z,99838.84
2022-08-17T03:36:11.061Z,99836.29
2022-08-17T03:37:11.055Z,99839.18
2022-08-17T03:38:15.106Z,99841.57
2022-08-17T03:39:11.061Z,99842.88
2022-08-17T03:40:11.106Z,99845.80
2022-08-17T03:41:11.068Z,99843.64
2022-08-17T03:42:32.071Z,99843.34
2022-08-17T03:43:13.061Z,99839.04
2022-08-17T03:44:11.063Z,99852.55
2022-08-17T03:45:15.369Z,99846.05
2022-08-17T03:46:34.742Z,99847.70
2022-08-17T03:47:17.059Z,99850.70
2022-08-17T03:48:15.067Z,99851.38
2022-08-17T03:49:15.066Z,99848.35
2022-08-17T03:50:15.060Z,99854.05
2022-08-17T03:51:18.063Z,99853.01
2022-08-17T03:52:15.061Z,99857.25
2022-08-17T03:53:17.068Z,99859.29
2022-08-17T03:54:15.069Z,99854.45
2022-08-17T03:55:15.064Z,99857.10
2022-08-17T03:56:15.064Z,99857.07
2022-08-17T03:57:11.063Z,99856.74
2022-08-17T03:58:11.063Z,99858.72
2022-08-17T03:59:11.063Z,99858.66
2022-08-17T04:00:13.070Z,99858.33
2022-08-17T04:01:11.115Z,99860.25
2022-08-17T04:02:13.063Z,99860.12
2022-08-17T04:03:11.065Z,99864.26
2022-08-17T04:04:11.072Z,99859.77
2022-08-17T04:05:11.062Z,99863.18
2022-08-17T04:06:11.065Z,99868.75
2022-08-17T04:07:11.074Z,99864.59
2022-08-17T04:08:11.062Z,99865.15
2022-08-17T04:09:11.065Z,99868.41
2022-08-17T04:10:11.067Z,99865.31
2022-08-17T04:11:11.063Z,99865.75
2022-08-17T04:12:11.064Z,99866.57
2022-08-17T04:13:11.067Z,99864.25
2022-08-17T04:14:11.063Z,99865.23
2022-08-17T04:15:11.065Z,99865.75
2022-08-17T04:16:11.065Z,99859.80
2022-08-17T04:17:11.065Z,99864.54
2022-08-17T04:18:11.185Z,99866.77
2022-08-17T04:19:11.068Z,99866.43
2022-08-17T04:20:11.063Z,99863.72
2022-08-17T04:21:11.059Z,99865.42
2022-08-17T04:22:11.062Z,99867.38
2022-08-17T04:23:18.814Z,99868.10
2022-08-17T04:24:11.059Z,99865.92
2022-08-17T04:25:15.067Z,99868.28
2022-08-17T04:26:11.060Z,99867.85
2022-08-17T04:27:13.053Z,99865.95
2022-08-17T04:28:16.187Z,99864.41
2022-08-17T04:29:13.087Z,99863.32
2022-08-17T04:30:11.058Z,99864.70
2022-08-17T04:31:13.058Z,99864.91
2022-08-17T04:32:11.063Z,99859.68
2022-08-17T04:33:16.379Z,99865.24
2022-08-17T04:34:11.065Z,99868.40
2022-08-17T04:35:11.068Z,99866.66
2022-08-17T04:36:11.063Z,99867.02
2022-08-17T04:37:11.061Z,99866.48
2022-08-17T04:38:11.066Z,99867.89
2022-08-17T04:39:11.059Z,99866.25
2022-08-17T04:40:15.090Z,99866.27
2022-08-17T04:41:15.073Z,99867.23
2022-08-17T04:42:17.134Z,99869.19
2022-08-17T04:43:15.057Z,99865.24
2022-08-17T04:44:11.074Z,99866.21
2022-08-17T04:45:11.061Z,99865.01
2022-08-17T04:46:16.062Z,99864.86
2022-08-17T04:47:11.060Z,99869.24
2022-08-17T04:48:11.061Z,99863.85
2022-08-17T04:49:11.062Z,99864.30
2022-08-17T04:50:11.063Z,99865.21
2022-08-17T04:51:15.066Z,99873.65
2022-08-17T04:52:11.070Z,99867.37
2022-08-17T04:53:13.074Z,99867.93
2022-08-17T04:54:12.063Z,99873.02
2022-08-17T04:55:11.068Z,99871.00
2022-08-17T04:56:11.800Z,99876.22
2022-08-17T04:57:13.076Z,99869.74
2022-08-17T04:58:11.065Z,99874.28
2022-08-17T04:59:11.065Z,99874.90
2022-08-17T05:00:11.060Z,99874.14
2022-08-17T05:01:11.172Z,99880.80
2022-08-17T05:02:13.066Z,99876.99
2022-08-17T05:03:11.062Z,99878.24
2022-08-17T05:04:33.484Z,99882.91
2022-08-17T05:05:13.085Z,99875.58
2022-08-17T05:06:11.062Z,99882.35
2022-08-17T05:07:11.066Z,99879.09
2022-08-17T05:08:11.072Z,99878.93
2022-08-17T05:09:11.062Z,99885.86
2022-08-17T05:10:11.067Z,99881.52
2022-08-17T05:11:11.074Z,99882.42
2022-08-17T05:12:11.072Z,99879.23
2022-08-17T05:13:18.073Z,99876.28
2022-08-17T05:14:11.075Z,99879.73
2022-08-17T05:15:13.066Z,99879.30
2022-08-17T05:16:11.064Z,99881.94
2022-08-17T05:17:11.346Z,99885.61
2022-08-17T05:18:11.068Z,99885.92
2022-08-17T05:19:11.081Z,99885.95
2022-08-17T05:20:11.078Z,99882.20
2022-08-17T05:21:11.065Z,99887.23
2022-08-17T05:22:11.058Z,99889.53
2022-08-17T05:23:12.061Z,99894.11
2022-08-17T05:24:38.324Z,99896.27
2022-08-17T05:25:13.372Z,99892.96
2022-08-17T05:26:26.256Z,99898.11
2022-08-17T05:27:16.772Z,99899.85
2022-08-17T05:28:13.065Z,99893.79
2022-08-17T05:29:11.060Z,99899.83
2022-08-17T05:30:11.067Z,99896.18
2022-08-17T05:31:11.059Z,99896.26
2022-08-17T05:32:38.288Z,99900.80
2022-08-17T05:33:20.362Z,99894.81
2022-08-17T05:34:11.067Z,99898.86
2022-08-17T05:35:11.063Z,99899.23
2022-08-17T05:36:11.060Z,99895.25
2022-08-17T05:37:13.079Z,99903.50
2022-08-17T05:38:11.060Z,99904.26
2022-08-17T05:39:15.733Z,99899.64
2022-08-17T05:40:13.087Z,99898.76
2022-08-17T05:41:11.062Z,99899.31
2022-08-17T05:42:11.062Z,99906.64
2022-08-17T05:43:12.070Z,99902.43
2022-08-17T05:44:11.062Z,99900.32
2022-08-17T05:45:11.064Z,99904.39
2022-08-17T05:46:20.070Z,99906.43
2022-08-17T05:47:11.065Z,99903.50
2022-08-17T05:48:11.061Z,99903.04
2022-08-17T05:49:11.090Z,99902.51
2022-08-17T05:50:13.066Z,99901.98
2022-08-17T05:51:23.102Z,99908.88
2022-08-17T05:52:21.065Z,99908.15
2022-08-17T05:53:19.062Z,99910.30
2022-08-17T05:54:19.069Z,99912.01
2022-08-17T05:55:19.063Z,99915.92
2022-08-17T05:56:30.305Z,99913.71
2022-08-17T05:57:21.149Z,99920.02
2022-08-17T05:58:21.063Z,99915.71
2022-08-17T05:59:21.070Z,99914.06
2022-08-17T06:00:20.190Z,99918.55
2022-08-17T06:01:21.134Z,99914.03
2022-08-17T06:02:19.066Z,99923.88
2022-08-17T06:03:21.063Z,99928.55
2022-08-17T06:04:21.068Z,99922.88
2022-08-17T06:05:21.072Z,99926.12
2022-08-17T06:06:17.080Z,99931.46
2022-08-17T06:07:21.061Z,99927.36
2022-08-17T06:08:19.060Z,99922.14
2022-08-17T06:09:25.787Z,99922.96
2022-08-17T06:10:21.087Z,99922.49
2022-08-17T06:11:19.951Z,99921.72
2022-08-17T06:12:19.815Z,99924.11
2022-08-17T06:13:19.089Z,99918.88
2022-08-17T06:14:19.130Z,99919.71
2022-08-17T06:15:19.068Z,99922.98
2022-08-17T06:16:33.341Z,99919.27
2022-08-17T06:17:17.088Z,99922.09
2022-08-17T06:18:12.876Z,99920.23
2022-08-17T06:19:19.092Z,99922.43
2022-08-17T06:20:12.078Z,99923.59
2022-08-17T06:21:13.057Z,99923.46
2022-08-17T06:22:14.061Z,99927.21
2022-08-17T06:23:13.059Z,99927.24
2022-08-17T06:24:19.059Z,99924.82
2022-08-17T06:25:15.055Z,99926.09
2022-08-17T06:26:17.068Z,99927.61
2022-08-17T06:27:19.078Z,99926.68
2022-08-17T06:28:18.059Z,99931.24
2022-08-17T06:29:23.062Z,99927.37
2022-08-17T06:30:18.058Z,99930.62
2022-08-17T06:31:19.072Z,99931.34
2022-08-17T06:32:12.641Z,99933.57
2022-08-17T06:33:19.060Z,99936.66
2022-08-17T06:34:11.064Z,99940.37
2022-08-17T06:35:12.063Z,99938.43
2022-08-17T06:36:19.058Z,99943.57
2022-08-17T06:37:19.057Z,99944.74
2022-08-17T06:38:37.675Z,99948.20
2022-08-17T06:39:21.892Z,99950.37
2022-08-17T06:40:19.065Z,99950.52
2022-08-17T06:41:19.065Z,99951.84
2022-08-17T06:42:59.945Z,99953.30
2022-08-17T06:43:21.071Z,99956.93
2022-08-17T06:44:43.238Z,99955.38
2022-08-17T06:45:18.094Z,99958.79
2022-08-17T06:46:16.062Z,99960.39
2022-08-17T06:47:15.062Z,99958.05
2022-08-17T06:48:23.313Z,99963.99
2022-08-17T06:49:21.077Z,99963.30
2022-08-17T06:50:21.063Z,99968.64
2022-08-17T06:51:21.063Z,99975.34
2022-08-17T06:52:45.380Z,99969.73
2022-08-17T06:53:21.094Z,99971.59
2022-08-17T06:54:21.064Z,99978.26
2022-08-17T06:55:18.795Z,99979.06
2022-08-17T06:56:14.084Z,99980.13
2022-08-17T06:57:21.062Z,99980.34
2022-08-17T06:58:16.014Z,99980.31
2022-08-17T06:59:17.071Z,99977.42
2022-08-17T07:00:17.072Z,99985.86
2022-08-17T07:01:16.123Z,99980.95
2022-08-17T07:02:15.066Z,99981.12
2022-08-17T07:03:19.065Z,99984.29
2022-08-17T07:04:18.080Z,99983.80
2022-08-17T07:05:11.068Z,99989.02
2022-08-17T07:06:15.061Z,99992.08
2022-08-17T07:07:15.067Z,99993.16
2022-08-17T07:08:19.066Z,99998.64
2022-08-17T07:09:21.062Z,99995.61
2022-08-17T07:10:11.064Z,99996.98
2022-08-17T07:11:16.073Z,99996.35
2022-08-17T07:12:15.067Z,100000.69
2022-08-17T07:13:19.065Z,99997.88
2022-08-17T07:14:21.066Z,100004.03
2022-08-17T07:15:15.067Z,99992.88
2022-08-17T07:16:21.066Z,100002.65
2022-08-17T07:17:14.070Z,100001.25
2022-08-17T07:18:11.069Z,100005.42
2022-08-17T07:19:11.309Z,100007.04
2022-08-17T07:20:14.056Z,100005.80
2022-08-17T07:21:19.197Z,100004.43
2022-08-17T07:22:21.061Z,100009.79
2022-08-17T07:23:19.094Z,100012.29
2022-08-17T07:24:29.268Z,100008.96
2022-08-17T07:25:14.087Z,100011.80
2022-08-17T07:26:11.059Z,100011.82
2022-08-17T07:27:13.078Z,100011.45
2022-08-17T07:28:11.064Z,100014.91
2022-08-17T07:29:13.081Z,100016.39
2022-08-17T07:30:19.059Z,100023.18
2022-08-17T07:31:11.066Z,100020.87
2022-08-17T07:32:11.061Z,100017.25
2022-08-17T07:33:14.063Z,100019.90
2022-08-17T07:34:11.068Z,100020.50
2022-08-17T07:35:17.077Z,100021.47
2022-08-17T07:36:19.060Z,100022.38
2022-08-17T07:37:11.061Z,100015.41
2022-08-17T07:38:25.259Z,100013.35
2022-08-17T07:39:13.090Z,100019.85
2022-08-17T07:40:19.112Z,100017.79
2022-08-17T07:41:11.061Z,100025.20
2022-08-17T07:42:11.062Z,100022.23
2022-08-17T07:43:23.240Z,100025.31
2022-08-17T07:44:15.062Z,100021.60
2022-08-17T07:45:15.071Z,100024.11
2022-08-17T07:46:22.064Z,100027.14
2022-08-17T07:47:17.063Z,100026.18
2022-08-17T07:48:19.057Z,100026.38
2022-08-17T07:49:20.067Z,100028.94
2022-08-17T07:50:25.394Z,100038.54
2022-08-17T07:51:15.072Z,100032.75
2022-08-17T07:52:47.769Z,100029.18
2022-08-17T07:53:21.093Z,100033.21
2022-08-17T07:54:21.061Z,100035.95
2022-08-17T07:55:19.074Z,100036.02
2022-08-17T07:56:11.097Z,100038.25
2022-08-17T07:57:19.062Z,100033.20
2022-08-17T07:58:15.061Z,100036.99
2022-08-17T07:59:14.498Z,100037.98
2022-08-17T08:00:16.299Z,100035.68
2022-08-17T08:01:14.132Z,100036.50
2022-08-17T08:02:19.138Z,100033.28
2022-08-17T08:03:19.065Z,100037.70
2022-08-17T08:04:29.144Z,100037.28
2022-08-17T08:05:44.292Z,100038.77
2022-08-17T08:06:21.094Z,100037.85
2022-08-17T08:07:19.063Z,100041.71
2022-08-17T08:08:21.068Z,100042.68
2022-08-17T08:09:15.067Z,100043.40
2022-08-17T08:10:19.065Z,100038.39
2022-08-17T08:11:12.065Z,100042.02
2022-08-17T08:12:19.066Z,100036.68
2022-08-17T08:13:19.073Z,100041.13
2022-08-17T08:14:19.067Z,100045.23
2022-08-17T08:15:19.178Z,100043.76
2022-08-17T08:16:19.070Z,100041.77
2022-08-17T08:17:11.070Z,100049.29
2022-08-17T08:18:19.078Z,100049.30
2022-08-17T08:19:13.086Z,100053.91
2022-08-17T08:20:40.841Z,100051.32
2022-08-17T08:21:25.077Z,100050.12
2022-08-17T08:22:12.060Z,100055.50
2022-08-17T08:23:23.059Z,100057.74
2022-08-17T08:24:21.059Z,100051.70
2022-08-17T08:25:21.058Z,100052.58
2022-08-17T08:26:19.061Z,100055.70
2022-08-17T08:27:19.061Z,100054.05
2022-08-17T08:28:19.060Z,100052.19
2022-08-17T08:29:19.077Z,100063.94
2022-08-17T08:30:18.061Z,100058.80
2022-08-17T08:31:19.061Z,100060.87
2022-08-17T08:32:19.077Z,100062.51
2022-08-17T08:33:21.061Z,100065.80
2022-08-17T08:34:54.736Z,100065.62
2022-08-17T08:35:21.073Z,100076.52
2022-08-17T08:37:12.668Z,100071.90
2022-08-17T08:37:32.638Z,100074.19
2022-08-17T08:38:21.119Z,100076.46
2022-08-17T08:39:19.060Z,100079.00
2022-08-17T08:40:23.063Z,100083.32
2022-08-17T08:41:19.060Z,100085.97
2022-08-17T08:42:18.065Z,100081.08
2022-08-17T08:43:19.069Z,100085.77
2022-08-17T08:44:23.063Z,100086.48
2022-08-17T08:45:21.085Z,100091.64
2022-08-17T08:46:21.060Z,100091.57
2022-08-17T08:47:18.065Z,100102.23
2022-08-17T08:48:22.877Z,100104.16
2022-08-17T08:49:33.855Z,100099.20
2022-08-17T08:50:37.728Z,100094.93
2022-08-17T08:51:21.070Z,100098.70
2022-08-17T08:52:19.062Z,100103.49
2022-08-17T08:53:19.062Z,100109.00
2022-08-17T08:54:26.597Z,100108.76
2022-08-17T08:55:23.087Z,100107.76
2022-08-17T08:56:19.065Z,100108.52
2022-08-17T08:57:29.167Z,100113.01
2022-08-17T08:58:31.562Z,100109.07
2022-08-17T08:59:21.084Z,100108.40
2022-08-17T09:00:18.141Z,100113.93
2022-08-17T09:01:20.131Z,100116.13
2022-08-17T09:02:19.067Z,100113.14
2022-08-17T09:03:19.064Z,100109.66
2022-08-17T09:04:24.656Z,100113.80
2022-08-17T09:05:21.092Z,100109.78
2022-08-17T09:06:32.607Z,100112.31
2022-08-17T09:07:25.073Z,100107.93
2022-08-17T09:08:19.064Z,100100.93
2022-08-17T09:09:23.061Z,100108.21
2022-08-17T09:10:21.065Z,100110.09
2022-08-17T09:11:19.066Z,100110.34
2022-08-17T09:12:19.129Z,100107.27
2022-08-17T09:13:19.066Z,100113.18
2022-08-17T09:14:21.574Z,100108.32
2022-08-17T09:15:19.069Z,100111.95
2022-08-17T09:16:17.065Z,100109.70
2022-08-17T09:17:18.484Z,100109.64
2022-08-17T09:19:00.389Z,100114.78
2022-08-17T09:19:21.090Z,100109.38
2022-08-17T09:20:28.067Z,100105.52
2022-08-17T09:21:19.070Z,100107.69
2022-08-17T09:22:24.083Z,100112.87
2022-08-17T09:23:22.060Z,100110.07
2022-08-17T09:24:17.059Z,100113.32
2022-08-17T09:25:19.058Z,100113.72
2022-08-17T09:26:17.062Z,100109.89
2022-08-17T09:27:17.066Z,100109.91
2022-08-17T09:28:18.059Z,100116.28
2022-08-17T09:29:12.058Z,100120.20
2022-08-17T09:30:11.063Z,100128.78
2022-08-17T09:31:20.069Z,100115.96
2022-08-17T09:32:21.063Z,100116.02
2022-08-17T09:33:11.060Z,100114.18
2022-08-17T09:34:16.062Z,100119.48
2022-08-17T09:35:19.061Z,100119.38
2022-08-17T09:36:15.061Z,100115.40
2022-08-17T09:37:21.056Z,100112.36
2022-08-17T09:38:22.067Z,100120.71
2022-08-17T09:39:18.061Z,100114.59
2022-08-17T09:40:20.128Z,100118.80
2022-08-17T09:41:19.060Z,100121.02
2022-08-17T09:42:21.060Z,100120.07
2022-08-17T09:43:19.062Z,100120.64
2022-08-17T09:44:23.401Z,100118.67
2022-08-17T09:45:19.074Z,100118.85
2022-08-17T09:46:17.067Z,100115.98
2022-08-17T09:47:21.060Z,100121.76
2022-08-17T09:48:19.064Z,100123.50
2022-08-17T09:49:16.061Z,100122.98
2022-08-17T09:50:16.139Z,100130.21
2022-08-17T09:51:19.062Z,100131.87
2022-08-17T09:52:21.063Z,100128.36
2022-08-17T09:53:11.058Z,100135.48
2022-08-17T09:54:38.470Z,100133.47
2022-08-17T09:55:13.096Z,100134.75
2022-08-17T09:56:19.064Z,100136.21
2022-08-17T09:57:29.957Z,100132.88
2022-08-17T09:58:21.173Z,100135.90
2022-08-17T09:59:21.065Z,100132.35
2022-08-17T10:00:22.070Z,100132.46
2022-08-17T10:01:19.113Z,100132.95
2022-08-17T10:02:19.063Z,100128.26
2022-08-17T10:03:21.062Z,100132.81
2022-08-17T10:04:20.355Z,100129.77
2022-08-17T10:05:21.064Z,100128.78
2022-08-17T10:06:22.135Z,100136.80
2022-08-17T10:07:19.065Z,100135.39
2022-08-17T10:08:23.068Z,100139.05
2022-08-17T10:09:20.063Z,100138.30
2022-08-17T10:10:21.068Z,100138.93
2022-08-17T10:11:21.064Z,100133.59
2022-08-17T10:12:30.184Z,100141.98
2022-08-17T10:13:23.072Z,100136.51
2022-08-17T10:14:38.094Z,100137.99
2022-08-17T10:15:21.073Z,100136.80
2022-08-17T10:16:21.067Z,100133.07
2022-08-17T10:17:19.063Z,100136.07
2022-08-17T10:18:19.069Z,100133.37
2022-08-17T10:19:18.067Z,100137.22
2022-08-17T10:20:19.066Z,100134.86
2022-08-17T10:21:17.058Z,100137.91
2022-08-17T10:22:35.137Z,100138.37
2022-08-17T10:23:25.077Z,100138.73
2022-08-17T10:24:22.055Z,100143.21
2022-08-17T10:25:23.993Z,100141.76
2022-08-17T10:26:24.071Z,100146.15
2022-08-17T10:27:12.073Z,100140.93
2022-08-17T10:28:20.017Z,100141.41
2022-08-17T10:29:22.254Z,100144.26
2022-08-17T10:30:15.142Z,100144.30
2022-08-17T10:31:34.306Z,100144.83
2022-08-17T10:32:15.435Z,100144.83
2022-08-17T10:33:19.056Z,100141.57
2022-08-17T10:34:19.055Z,100140.38
2022-08-17T10:35:19.060Z,100143.42
2022-08-17T10:36:19.064Z,100138.18
2022-08-17T10:37:21.063Z,100144.15
2022-08-17T10:38:24.358Z,100143.43
2022-08-17T10:39:21.058Z,100140.50
2022-08-17T10:40:21.128Z,100136.37
2022-08-17T10:41:19.061Z,100138.67
2022-08-17T10:42:30.768Z,100137.91
2022-08-17T10:43:23.082Z,100138.33
2022-08-17T10:44:38.415Z,100144.71
2022-08-17T10:45:22.064Z,100145.25
2022-08-17T10:46:31.094Z,100142.42
2022-08-17T10:47:14.063Z,100137.61
2022-08-17T10:48:19.062Z,100140.26
2022-08-17T10:49:23.069Z,100145.92
2022-08-17T10:50:19.062Z,100138.70
2022-08-17T10:51:17.063Z,100144.74
2022-08-17T10:52:19.060Z,100136.48
2022-08-17T10:53:11.063Z,100142.57
2022-08-17T10:54:21.070Z,100140.55
2022-08-17T10:55:17.063Z,100143.33
2022-08-17T10:56:18.061Z,100143.46
2022-08-17T10:57:19.065Z,100147.91
2022-08-17T10:58:18.066Z,100139.60
2022-08-17T10:59:15.071Z,100136.17
2022-08-17T11:00:19.060Z,100136.34
2022-08-17T11:01:15.138Z,100130.18
2022-08-17T11:02:19.063Z,100126.79
2022-08-17T11:03:16.073Z,100132.46
2022-08-17T11:04:19.064Z,100134.43
2022-08-17T11:05:19.064Z,100139.54
2022-08-17T11:06:18.072Z,100132.86
2022-08-17T11:07:19.066Z,100136.89
2022-08-17T11:08:19.075Z,100139.21
2022-08-17T11:09:21.063Z,100146.33
2022-08-17T11:10:19.074Z,100152.13
2022-08-17T11:11:19.059Z,100144.10
2022-08-17T11:12:19.063Z,100141.86
2022-08-17T11:13:21.070Z,100139.91
2022-08-17T11:14:19.074Z,100141.24
2022-08-17T11:15:19.063Z,100141.27
2022-08-17T11:16:20.061Z,100144.16
2022-08-17T11:17:19.069Z,100146.04
2022-08-17T11:18:19.069Z,100143.61
2022-08-17T11:19:20.078Z,100151.43
2022-08-17T11:20:19.057Z,100143.90
2022-08-17T11:21:19.054Z,100140.86
2022-08-17T11:22:21.055Z,100144.69
2022-08-17T11:23:21.061Z,100141.95
2022-08-17T11:24:16.060Z,100140.68
2022-08-17T11:25:19.057Z,100145.63
2022-08-17T11:26:20.054Z,100148.79
2022-08-17T11:27:19.060Z,100154.14
2022-08-17T11:28:18.099Z,100146.20
2022-08-17T11:29:23.268Z,100145.11
2022-08-17T11:30:15.056Z,100143.88
2022-08-17T11:31:15.054Z,100147.41
2022-08-17T11:32:16.057Z,100147.99
2022-08-17T11:33:19.071Z,100143.36
2022-08-17T11:34:19.062Z,100144.59
2022-08-17T11:35:18.058Z,100146.89
2022-08-17T11:36:21.060Z,100155.98